Somerville, Ohio
Current Conditions -  °F | °C
As of 8:35 AM on Saturday 20 Dec 2014 (Local Time) from KMWO Reporting Station
Overcast Overcast  
Wind Chill: 34°   Ceiling: 1900
Heat Index: 34°   Visibility: 10mi
Dew Point: 27°   Wind: 3mph
Humidity: 74%   Direction: 10°N
Pressure: 30.31"   Gusts: NA
Location:  39.56°N, 84.64°W
Report Text: KMWO 201335Z AUTO 01003KT 10SM OVC019 01/M03 A3031 RMK AO2 T00121030
Loading
Personal Weather Stations






























Interactive Weather Map New forecast layout! Learn more

10-Day Weather Forecast

Advertisements
Track Severe Weather on mobile